sensor_id;sensor_type;location;lat;lon;timestamp;temperature;humidity
65462;DHT22;53236;43.666;18.444;2023-08-21T00:01:21;16.80;99.90
65462;DHT22;53236;43.666;18.444;2023-08-21T00:03:47;16.70;99.90
65462;DHT22;53236;43.666;18.444;2023-08-21T00:06:12;16.70;99.90
65462;DHT22;53236;43.666;18.444;2023-08-21T00:08:38;16.70;99.90
65462;DHT22;53236;43.666;18.444;2023-08-21T00:11:04;16.40;99.90
65462;DHT22;53236;43.666;18.444;2023-08-21T00:13:29;16.40;99.90
65462;DHT22;53236;43.666;18.444;2023-08-21T00:15:55;16.40;99.90
65462;DHT22;53236;43.666;18.444;2023-08-21T00:18:22;16.40;99.90
65462;DHT22;53236;43.666;18.444;2023-08-21T00:20:47;16.30;99.90
65462;DHT22;53236;43.666;18.444;2023-08-21T00:23:13;16.40;99.90
65462;DHT22;53236;43.666;18.444;2023-08-21T00:25:39;16.40;99.90
65462;DHT22;53236;43.666;18.444;2023-08-21T00:28:06;16.50;99.90
65462;DHT22;53236;43.666;18.444;2023-08-21T00:30:32;16.50;99.90
65462;DHT22;53236;43.666;18.444;2023-08-21T00:32:58;16.60;99.90
65462;DHT22;53236;43.666;18.444;2023-08-21T00:35:23;16.60;99.90
65462;DHT22;53236;43.666;18.444;2023-08-21T00:37:49;16.50;99.90
65462;DHT22;53236;43.666;18.444;2023-08-21T00:40:15;16.50;99.90
65462;DHT22;53236;43.666;18.444;2023-08-21T00:42:41;16.50;99.90
65462;DHT22;53236;43.666;18.444;2023-08-21T00:45:07;16.50;99.90
65462;DHT22;53236;43.666;18.444;2023-08-21T00:47:37;16.40;99.90
65462;DHT22;53236;43.666;18.444;2023-08-21T00:50:03;16.40;99.90
65462;DHT22;53236;43.666;18.444;2023-08-21T00:52:31;16.40;99.90
65462;DHT22;53236;43.666;18.444;2023-08-21T00:54:57;16.40;99.90
65462;DHT22;53236;43.666;18.444;2023-08-21T00:57:23;16.30;99.90
65462;DHT22;53236;43.666;18.444;2023-08-21T00:59:49;16.40;99.90
65462;DHT22;53236;43.666;18.444;2023-08-21T01:02:15;16.40;99.90
65462;DHT22;53236;43.666;18.444;2023-08-21T01:04:41;16.40;99.90
65462;DHT22;53236;43.666;18.444;2023-08-21T01:07:07;16.40;99.90
65462;DHT22;53236;43.666;18.444;2023-08-21T01:10:03;16.40;99.90
65462;DHT22;53236;43.666;18.444;2023-08-21T01:12:41;16.40;99.90
65462;DHT22;53236;43.666;18.444;2023-08-21T01:15:10;16.40;99.90
65462;DHT22;53236;43.666;18.444;2023-08-21T01:17:37;16.40;99.90
65462;DHT22;53236;43.666;18.444;2023-08-21T01:20:05;16.40;99.90
65462;DHT22;53236;43.666;18.444;2023-08-21T01:22:42;16.40;99.90
65462;DHT22;53236;43.666;18.444;2023-08-21T01:25:12;16.30;99.90
65462;DHT22;53236;43.666;18.444;2023-08-21T01:27:42;16.30;99.90
65462;DHT22;53236;43.666;18.444;2023-08-21T01:30:09;16.20;99.90
65462;DHT22;53236;43.666;18.444;2023-08-21T01:35:06;16.20;99.90
65462;DHT22;53236;43.666;18.444;2023-08-21T01:37:32;16.30;99.90
65462;DHT22;53236;43.666;18.444;2023-08-21T01:39:59;16.30;99.90
65462;DHT22;53236;43.666;18.444;2023-08-21T01:42:24;16.20;99.90
65462;DHT22;53236;43.666;18.444;2023-08-21T01:44:50;16.20;99.90
65462;DHT22;53236;43.666;18.444;2023-08-21T01:47:16;16.30;99.90
65462;DHT22;53236;43.666;18.444;2023-08-21T01:49:41;16.20;99.90
65462;DHT22;53236;43.666;18.444;2023-08-21T01:52:07;16.20;99.90
65462;DHT22;53236;43.666;18.444;2023-08-21T01:54:33;16.20;99.90
65462;DHT22;53236;43.666;18.444;2023-08-21T01:56:59;16.20;99.90
65462;DHT22;53236;43.666;18.444;2023-08-21T01:59:24;16.10;99.90
65462;DHT22;53236;43.666;18.444;2023-08-21T02:01:50;16.20;99.90
65462;DHT22;53236;43.666;18.444;2023-08-21T02:04:16;16.20;99.90
65462;DHT22;53236;43.666;18.444;2023-08-21T02:06:42;16.10;99.90
65462;DHT22;53236;43.666;18.444;2023-08-21T02:09:10;16.00;99.90
65462;DHT22;53236;43.666;18.444;2023-08-21T02:11:36;15.90;99.90
65462;DHT22;53236;43.666;18.444;2023-08-21T02:14:02;15.90;99.90
65462;DHT22;53236;43.666;18.444;2023-08-21T02:16:28;15.90;99.90
65462;DHT22;53236;43.666;18.444;2023-08-21T02:18:54;15.90;99.90
65462;DHT22;53236;43.666;18.444;2023-08-21T02:21:20;15.90;99.90
65462;DHT22;53236;43.666;18.444;2023-08-21T02:23:46;15.80;99.90
65462;DHT22;53236;43.666;18.444;2023-08-21T02:26:12;15.80;99.90
65462;DHT22;53236;43.666;18.444;2023-08-21T02:28:38;15.90;99.90
65462;DHT22;53236;43.666;18.444;2023-08-21T02:31:04;15.90;99.90
65462;DHT22;53236;43.666;18.444;2023-08-21T02:33:30;15.90;99.90
65462;DHT22;53236;43.666;18.444;2023-08-21T02:35:56;16.00;99.90
65462;DHT22;53236;43.666;18.444;2023-08-21T02:38:22;16.00;99.90
65462;DHT22;53236;43.666;18.444;2023-08-21T02:40:48;16.00;99.90
65462;DHT22;53236;43.666;18.444;2023-08-21T02:43:15;16.00;99.90
65462;DHT22;53236;43.666;18.444;2023-08-21T02:45:41;16.00;99.90
65462;DHT22;53236;43.666;18.444;2023-08-21T02:48:08;16.00;99.90
65462;DHT22;53236;43.666;18.444;2023-08-21T02:50:33;16.00;99.90
65462;DHT22;53236;43.666;18.444;2023-08-21T02:52:59;16.00;99.90
65462;DHT22;53236;43.666;18.444;2023-08-21T02:55:25;16.00;99.90
65462;DHT22;53236;43.666;18.444;2023-08-21T02:57:50;16.00;99.90
65462;DHT22;53236;43.666;18.444;2023-08-21T03:00:16;15.80;99.90
65462;DHT22;53236;43.666;18.444;2023-08-21T03:02:42;15.80;99.90
65462;DHT22;53236;43.666;18.444;2023-08-21T03:05:08;15.80;99.90
65462;DHT22;53236;43.666;18.444;2023-08-21T03:07:35;15.70;99.90
65462;DHT22;53236;43.666;18.444;2023-08-21T03:10:01;15.70;99.90
65462;DHT22;53236;43.666;18.444;2023-08-21T03:12:28;15.70;99.90
65462;DHT22;53236;43.666;18.444;2023-08-21T03:14:53;15.60;99.90
65462;DHT22;53236;43.666;18.444;2023-08-21T03:17:19;15.70;99.90
65462;DHT22;53236;43.666;18.444;2023-08-21T03:19:45;15.50;99.90
65462;DHT22;53236;43.666;18.444;2023-08-21T03:22:11;15.50;99.90
65462;DHT22;53236;43.666;18.444;2023-08-21T03:24:36;15.50;99.90
65462;DHT22;53236;43.666;18.444;2023-08-21T03:27:03;15.50;99.90
65462;DHT22;53236;43.666;18.444;2023-08-21T03:29:29;15.40;99.90
65462;DHT22;53236;43.666;18.444;2023-08-21T03:31:55;15.40;99.90
65462;DHT22;53236;43.666;18.444;2023-08-21T03:34:21;15.40;99.90
65462;DHT22;53236;43.666;18.444;2023-08-21T03:36:47;15.50;99.90
65462;DHT22;53236;43.666;18.444;2023-08-21T03:39:13;15.40;99.90
65462;DHT22;53236;43.666;18.444;2023-08-21T03:41:38;15.40;99.90
65462;DHT22;53236;43.666;18.444;2023-08-21T03:44:04;15.40;99.90
65462;DHT22;53236;43.666;18.444;2023-08-21T03:46:30;15.30;99.90
65462;DHT22;53236;43.666;18.444;2023-08-21T03:48:56;15.30;99.90
65462;DHT22;53236;43.666;18.444;2023-08-21T03:51:22;15.30;99.90
65462;DHT22;53236;43.666;18.444;2023-08-21T03:53:48;15.20;99.90
65462;DHT22;53236;43.666;18.444;2023-08-21T03:56:14;15.30;99.90
65462;DHT22;53236;43.666;18.444;2023-08-21T03:58:40;15.00;99.90
65462;DHT22;53236;43.666;18.444;2023-08-21T04:01:06;14.90;99.90
65462;DHT22;53236;43.666;18.444;2023-08-21T04:03:31;14.90;99.90
65462;DHT22;53236;43.666;18.444;2023-08-21T04:05:59;15.00;99.90
65462;DHT22;53236;43.666;18.444;2023-08-21T04:08:25;15.10;99.90
65462;DHT22;53236;43.666;18.444;2023-08-21T04:10:50;15.20;99.90
65462;DHT22;53236;43.666;18.444;2023-08-21T04:13:18;15.40;99.90
65462;DHT22;53236;43.666;18.444;2023-08-21T04:15:45;15.40;99.90
65462;DHT22;53236;43.666;18.444;2023-08-21T04:18:11;15.50;99.90
65462;DHT22;53236;43.666;18.444;2023-08-21T04:20:37;15.50;99.90
65462;DHT22;53236;43.666;18.444;2023-08-21T04:23:03;15.60;99.90
65462;DHT22;53236;43.666;18.444;2023-08-21T04:25:29;15.30;99.90
65462;DHT22;53236;43.666;18.444;2023-08-21T04:27:54;15.30;99.90
65462;DHT22;53236;43.666;18.444;2023-08-21T04:30:20;15.30;99.90
65462;DHT22;53236;43.666;18.444;2023-08-21T04:32:47;15.30;99.90
65462;DHT22;53236;43.666;18.444;2023-08-21T04:35:13;15.30;99.90
65462;DHT22;53236;43.666;18.444;2023-08-21T04:37:45;15.20;99.90
65462;DHT22;53236;43.666;18.444;2023-08-21T04:40:12;15.30;99.90
65462;DHT22;53236;43.666;18.444;2023-08-21T04:42:38;15.40;99.90
65462;DHT22;53236;43.666;18.444;2023-08-21T04:45:04;15.40;99.90
65462;DHT22;53236;43.666;18.444;2023-08-21T04:47:31;15.30;99.90
65462;DHT22;53236;43.666;18.444;2023-08-21T04:49:57;15.40;99.90
65462;DHT22;53236;43.666;18.444;2023-08-21T04:52:23;15.40;99.90
65462;DHT22;53236;43.666;18.444;2023-08-21T04:54:50;15.50;99.90
65462;DHT22;53236;43.666;18.444;2023-08-21T04:57:16;15.50;99.90
65462;DHT22;53236;43.666;18.444;2023-08-21T04:59:43;15.40;99.90
65462;DHT22;53236;43.666;18.444;2023-08-21T05:02:09;15.50;99.90
65462;DHT22;53236;43.666;18.444;2023-08-21T05:04:36;15.50;99.90
65462;DHT22;53236;43.666;18.444;2023-08-21T05:07:03;15.60;99.90
65462;DHT22;53236;43.666;18.444;2023-08-21T05:09:30;15.60;99.90
65462;DHT22;53236;43.666;18.444;2023-08-21T05:11:55;15.60;99.90
65462;DHT22;53236;43.666;18.444;2023-08-21T05:14:23;15.70;99.90
65462;DHT22;53236;43.666;18.444;2023-08-21T05:16:49;15.80;99.90
65462;DHT22;53236;43.666;18.444;2023-08-21T05:19:16;16.10;99.90
65462;DHT22;53236;43.666;18.444;2023-08-21T05:21:42;16.30;99.90
65462;DHT22;53236;43.666;18.444;2023-08-21T05:24:08;16.60;99.90
65462;DHT22;53236;43.666;18.444;2023-08-21T05:26:35;16.70;99.90
65462;DHT22;53236;43.666;18.444;2023-08-21T05:29:02;16.90;99.90
65462;DHT22;53236;43.666;18.444;2023-08-21T05:31:27;16.80;99.90
65462;DHT22;53236;43.666;18.444;2023-08-21T05:33:53;16.80;99.90
65462;DHT22;53236;43.666;18.444;2023-08-21T05:36:19;16.90;99.90
65462;DHT22;53236;43.666;18.444;2023-08-21T05:38:44;17.00;99.90
65462;DHT22;53236;43.666;18.444;2023-08-21T05:41:11;17.20;99.90
65462;DHT22;53236;43.666;18.444;2023-08-21T05:43:37;17.50;99.90
65462;DHT22;53236;43.666;18.444;2023-08-21T05:46:05;17.80;99.90
65462;DHT22;53236;43.666;18.444;2023-08-21T05:48:31;17.80;99.90
65462;DHT22;53236;43.666;18.444;2023-08-21T05:50:57;18.20;99.90
65462;DHT22;53236;43.666;18.444;2023-08-21T05:53:23;18.20;99.90
65462;DHT22;53236;43.666;18.444;2023-08-21T05:55:48;18.20;99.90
65462;DHT22;53236;43.666;18.444;2023-08-21T05:58:14;18.20;99.90
65462;DHT22;53236;43.666;18.444;2023-08-21T06:00:40;18.40;99.90
65462;DHT22;53236;43.666;18.444;2023-08-21T06:03:06;18.80;99.90
65462;DHT22;53236;43.666;18.444;2023-08-21T06:05:32;19.30;99.90
65462;DHT22;53236;43.666;18.444;2023-08-21T06:07:57;19.90;99.90
65462;DHT22;53236;43.666;18.444;2023-08-21T06:10:23;20.40;99.90
65462;DHT22;53236;43.666;18.444;2023-08-21T06:12:49;20.50;99.90
65462;DHT22;53236;43.666;18.444;2023-08-21T06:15:16;21.20;99.90
65462;DHT22;53236;43.666;18.444;2023-08-21T06:17:42;22.50;99.90
65462;DHT22;53236;43.666;18.444;2023-08-21T06:20:08;24.10;98.70
65462;DHT22;53236;43.666;18.444;2023-08-21T06:22:36;24.80;90.10
65462;DHT22;53236;43.666;18.444;2023-08-21T06:25:03;24.90;90.30
65462;DHT22;53236;43.666;18.444;2023-08-21T06:27:29;25.50;85.90
65462;DHT22;53236;43.666;18.444;2023-08-21T06:29:55;26.80;80.10
65462;DHT22;53236;43.666;18.444;2023-08-21T06:32:20;26.90;77.30
65462;DHT22;53236;43.666;18.444;2023-08-21T06:34:46;27.30;74.50
65462;DHT22;53236;43.666;18.444;2023-08-21T06:37:12;27.60;73.80
65462;DHT22;53236;43.666;18.444;2023-08-21T06:39:38;28.10;72.20
65462;DHT22;53236;43.666;18.444;2023-08-21T06:42:04;28.70;70.70
65462;DHT22;53236;43.666;18.444;2023-08-21T06:44:30;29.30;67.70
65462;DHT22;53236;43.666;18.444;2023-08-21T06:46:56;30.40;66.40
65462;DHT22;53236;43.666;18.444;2023-08-21T06:49:22;31.30;61.60
65462;DHT22;53236;43.666;18.444;2023-08-21T06:51:48;31.50;62.30
65462;DHT22;53236;43.666;18.444;2023-08-21T06:54:13;32.10;61.20
65462;DHT22;53236;43.666;18.444;2023-08-21T06:56:39;32.90;59.20
65462;DHT22;53236;43.666;18.444;2023-08-21T06:59:05;34.10;57.90
65462;DHT22;53236;43.666;18.444;2023-08-21T07:01:31;34.60;55.70
65462;DHT22;53236;43.666;18.444;2023-08-21T07:03:56;35.70;54.10
65462;DHT22;53236;43.666;18.444;2023-08-21T07:06:22;36.20;52.90
65462;DHT22;53236;43.666;18.444;2023-08-21T07:08:48;36.80;51.50
65462;DHT22;53236;43.666;18.444;2023-08-21T07:11:13;35.40;52.50
65462;DHT22;53236;43.666;18.444;2023-08-21T07:13:39;34.10;54.50
65462;DHT22;53236;43.666;18.444;2023-08-21T07:16:05;33.40;55.60
65462;DHT22;53236;43.666;18.444;2023-08-21T07:18:35;32.00;57.20
65462;DHT22;53236;43.666;18.444;2023-08-21T07:21:01;33.30;58.60
65462;DHT22;53236;43.666;18.444;2023-08-21T07:23:29;33.40;56.60
65462;DHT22;53236;43.666;18.444;2023-08-21T07:25:54;34.00;55.20
65462;DHT22;53236;43.666;18.444;2023-08-21T07:28:20;35.00;55.00
65462;DHT22;53236;43.666;18.444;2023-08-21T07:30:46;35.70;54.50
65462;DHT22;53236;43.666;18.444;2023-08-21T07:33:12;35.90;54.00
65462;DHT22;53236;43.666;18.444;2023-08-21T07:35:37;36.50;52.50
65462;DHT22;53236;43.666;18.444;2023-08-21T07:38:03;37.90;51.40
65462;DHT22;53236;43.666;18.444;2023-08-21T07:40:29;39.40;50.00
65462;DHT22;53236;43.666;18.444;2023-08-21T07:42:55;40.80;48.00
65462;DHT22;53236;43.666;18.444;2023-08-21T07:45:20;40.70;48.70
65462;DHT22;53236;43.666;18.444;2023-08-21T07:47:46;42.00;46.40
65462;DHT22;53236;43.666;18.444;2023-08-21T07:50:12;40.90;46.50
65462;DHT22;53236;43.666;18.444;2023-08-21T07:52:39;40.90;46.10
65462;DHT22;53236;43.666;18.444;2023-08-21T07:55:05;41.20;46.30
65462;DHT22;53236;43.666;18.444;2023-08-21T07:57:32;42.10;45.80
65462;DHT22;53236;43.666;18.444;2023-08-21T07:59:57;43.60;44.60
65462;DHT22;53236;43.666;18.444;2023-08-21T08:02:23;44.00;44.10
65462;DHT22;53236;43.666;18.444;2023-08-21T08:04:49;44.40;42.00
65462;DHT22;53236;43.666;18.444;2023-08-21T08:07:15;45.10;42.70
65462;DHT22;53236;43.666;18.444;2023-08-21T08:09:41;45.80;42.10
65462;DHT22;53236;43.666;18.444;2023-08-21T08:12:07;45.60;41.60
65462;DHT22;53236;43.666;18.444;2023-08-21T08:14:33;45.50;41.20
65462;DHT22;53236;43.666;18.444;2023-08-21T08:16:58;46.10;41.30
65462;DHT22;53236;43.666;18.444;2023-08-21T08:19:24;45.50;40.20
65462;DHT22;53236;43.666;18.444;2023-08-21T08:21:50;44.90;41.20
65462;DHT22;53236;43.666;18.444;2023-08-21T08:24:16;46.00;40.70
65462;DHT22;53236;43.666;18.444;2023-08-21T08:26:41;46.50;40.60
65462;DHT22;53236;43.666;18.444;2023-08-21T08:29:09;46.10;40.90
65462;DHT22;53236;43.666;18.444;2023-08-21T08:31:34;47.20;40.30
65462;DHT22;53236;43.666;18.444;2023-08-21T08:34:00;47.90;39.00
65462;DHT22;53236;43.666;18.444;2023-08-21T08:36:26;48.50;39.40
65462;DHT22;53236;43.666;18.444;2023-08-21T08:38:52;49.20;38.30
65462;DHT22;53236;43.666;18.444;2023-08-21T08:41:50;47.50;39.70
65462;DHT22;53236;43.666;18.444;2023-08-21T08:44:18;48.30;38.90
65462;DHT22;53236;43.666;18.444;2023-08-21T08:46:44;48.50;38.50
65462;DHT22;53236;43.666;18.444;2023-08-21T08:49:10;47.50;39.70
65462;DHT22;53236;43.666;18.444;2023-08-21T08:51:38;47.90;39.00
65462;DHT22;53236;43.666;18.444;2023-08-21T08:54:05;46.80;39.30
65462;DHT22;53236;43.666;18.444;2023-08-21T08:56:32;46.60;39.90
65462;DHT22;53236;43.666;18.444;2023-08-21T08:58:57;46.40;39.70
65462;DHT22;53236;43.666;18.444;2023-08-21T09:01:23;46.10;39.90
65462;DHT22;53236;43.666;18.444;2023-08-21T09:03:49;46.10;41.10
65462;DHT22;53236;43.666;18.444;2023-08-21T09:06:20;44.80;41.50
65462;DHT22;53236;43.666;18.444;2023-08-21T09:08:56;43.40;43.50
65462;DHT22;53236;43.666;18.444;2023-08-21T09:11:23;42.10;45.00
65462;DHT22;53236;43.666;18.444;2023-08-21T09:13:50;40.30;46.00
65462;DHT22;53236;43.666;18.444;2023-08-21T09:16:17;39.00;47.90
65462;DHT22;53236;43.666;18.444;2023-08-21T09:18:50;37.40;50.40
65462;DHT22;53236;43.666;18.444;2023-08-21T09:21:17;36.50;51.70
65462;DHT22;53236;43.666;18.444;2023-08-21T09:23:43;36.20;52.00
65462;DHT22;53236;43.666;18.444;2023-08-21T09:26:10;36.00;52.90
65462;DHT22;53236;43.666;18.444;2023-08-21T09:28:35;36.60;52.70
65462;DHT22;53236;43.666;18.444;2023-08-21T09:31:03;36.10;52.00
65462;DHT22;53236;43.666;18.444;2023-08-21T09:33:28;35.90;53.90
65462;DHT22;53236;43.666;18.444;2023-08-21T09:35:55;35.80;53.90
65462;DHT22;53236;43.666;18.444;2023-08-21T09:38:21;35.60;54.60
65462;DHT22;53236;43.666;18.444;2023-08-21T09:40:55;35.50;54.80
65462;DHT22;53236;43.666;18.444;2023-08-21T09:43:22;34.70;54.50
65462;DHT22;53236;43.666;18.444;2023-08-21T09:45:49;34.90;55.00
65462;DHT22;53236;43.666;18.444;2023-08-21T09:48:18;34.90;56.70
65462;DHT22;53236;43.666;18.444;2023-08-21T09:50:46;34.90;55.50
65462;DHT22;53236;43.666;18.444;2023-08-21T09:53:12;35.10;53.70
65462;DHT22;53236;43.666;18.444;2023-08-21T09:55:40;34.70;55.80
65462;DHT22;53236;43.666;18.444;2023-08-21T09:58:08;34.70;53.30
65462;DHT22;53236;43.666;18.444;2023-08-21T10:00:38;34.90;55.90
65462;DHT22;53236;43.666;18.444;2023-08-21T10:03:07;35.10;53.70
65462;DHT22;53236;43.666;18.444;2023-08-21T10:05:37;35.10;53.00
65462;DHT22;53236;43.666;18.444;2023-08-21T10:08:04;34.40;54.90
65462;DHT22;53236;43.666;18.444;2023-08-21T10:10:39;34.40;56.60
65462;DHT22;53236;43.666;18.444;2023-08-21T10:13:05;34.50;54.70
65462;DHT22;53236;43.666;18.444;2023-08-21T10:15:32;34.10;53.50
65462;DHT22;53236;43.666;18.444;2023-08-21T10:20:43;32.80;52.90
65462;DHT22;53236;43.666;18.444;2023-08-21T10:23:08;32.90;55.20
65462;DHT22;53236;43.666;18.444;2023-08-21T10:25:41;32.50;56.80
65462;DHT22;53236;43.666;18.444;2023-08-21T10:28:07;32.10;58.70
65462;DHT22;53236;43.666;18.444;2023-08-21T10:30:33;32.50;58.00
65462;DHT22;53236;43.666;18.444;2023-08-21T10:32:59;32.80;55.20
65462;DHT22;53236;43.666;18.444;2023-08-21T10:35:30;32.70;55.70
65462;DHT22;53236;43.666;18.444;2023-08-21T10:38:15;32.30;56.60
65462;DHT22;53236;43.666;18.444;2023-08-21T10:41:06;32.30;56.10
65462;DHT22;53236;43.666;18.444;2023-08-21T10:43:39;32.10;54.60
65462;DHT22;53236;43.666;18.444;2023-08-21T10:46:05;32.40;55.50
65462;DHT22;53236;43.666;18.444;2023-08-21T10:48:31;32.50;55.30
65462;DHT22;53236;43.666;18.444;2023-08-21T10:51:04;31.80;55.60
65462;DHT22;53236;43.666;18.444;2023-08-21T10:53:31;31.50;56.40
65462;DHT22;53236;43.666;18.444;2023-08-21T10:56:00;31.70;57.20
65462;DHT22;53236;43.666;18.444;2023-08-21T10:58:26;32.00;56.90
65462;DHT22;53236;43.666;18.444;2023-08-21T11:00:58;32.00;56.80
65462;DHT22;53236;43.666;18.444;2023-08-21T11:03:24;32.30;55.90
65462;DHT22;53236;43.666;18.444;2023-08-21T11:06:10;32.20;55.50
65462;DHT22;53236;43.666;18.444;2023-08-21T11:08:36;32.10;55.60
65462;DHT22;53236;43.666;18.444;2023-08-21T11:11:04;31.60;55.70
65462;DHT22;53236;43.666;18.444;2023-08-21T11:13:30;31.40;56.80
65462;DHT22;53236;43.666;18.444;2023-08-21T11:16:05;31.20;56.50
65462;DHT22;53236;43.666;18.444;2023-08-21T11:18:31;31.00;56.80
65462;DHT22;53236;43.666;18.444;2023-08-21T11:21:11;31.00;54.10
65462;DHT22;53236;43.666;18.444;2023-08-21T11:23:39;30.90;55.40
65462;DHT22;53236;43.666;18.444;2023-08-21T11:26:05;31.30;55.70
65462;DHT22;53236;43.666;18.444;2023-08-21T11:28:32;31.50;55.50
65462;DHT22;53236;43.666;18.444;2023-08-21T11:30:58;31.50;56.20
65462;DHT22;53236;43.666;18.444;2023-08-21T11:33:26;31.40;56.80
65462;DHT22;53236;43.666;18.444;2023-08-21T11:35:52;31.10;57.00
65462;DHT22;53236;43.666;18.444;2023-08-21T11:38:24;31.20;56.10
65462;DHT22;53236;43.666;18.444;2023-08-21T11:43:17;31.30;55.40
65462;DHT22;53236;43.666;18.444;2023-08-21T11:45:48;31.30;55.90
65462;DHT22;53236;43.666;18.444;2023-08-21T11:48:14;31.00;55.80
65462;DHT22;53236;43.666;18.444;2023-08-21T11:50:40;31.20;55.40
65462;DHT22;53236;43.666;18.444;2023-08-21T11:53:06;31.20;55.80
65462;DHT22;53236;43.666;18.444;2023-08-21T11:55:31;31.20;55.00
65462;DHT22;53236;43.666;18.444;2023-08-21T11:57:57;31.20;58.20
65462;DHT22;53236;43.666;18.444;2023-08-21T12:00:28;31.00;55.80
65462;DHT22;53236;43.666;18.444;2023-08-21T12:03:01;31.00;55.20
65462;DHT22;53236;43.666;18.444;2023-08-21T12:05:28;31.00;55.30
65462;DHT22;53236;43.666;18.444;2023-08-21T12:07:55;31.10;55.90
65462;DHT22;53236;43.666;18.444;2023-08-21T12:10:25;30.90;58.50
65462;DHT22;53236;43.666;18.444;2023-08-21T12:12:51;30.40;59.50
65462;DHT22;53236;43.666;18.444;2023-08-21T12:15:17;30.60;59.20
65462;DHT22;53236;43.666;18.444;2023-08-21T12:17:43;30.80;59.60
65462;DHT22;53236;43.666;18.444;2023-08-21T12:20:09;31.10;57.80
65462;DHT22;53236;43.666;18.444;2023-08-21T12:22:39;31.20;59.40
65462;DHT22;53236;43.666;18.444;2023-08-21T12:25:06;31.00;61.70
65462;DHT22;53236;43.666;18.444;2023-08-21T12:27:32;30.70;62.60
65462;DHT22;53236;43.666;18.444;2023-08-21T12:29:58;30.70;62.50
65462;DHT22;53236;43.666;18.444;2023-08-21T12:32:24;30.40;63.00
65462;DHT22;53236;43.666;18.444;2023-08-21T12:34:51;30.50;64.00
65462;DHT22;53236;43.666;18.444;2023-08-21T12:37:17;30.60;63.20
65462;DHT22;53236;43.666;18.444;2023-08-21T12:39:43;30.80;63.40
65462;DHT22;53236;43.666;18.444;2023-08-21T12:42:09;30.80;63.00
65462;DHT22;53236;43.666;18.444;2023-08-21T12:44:35;30.90;62.10
65462;DHT22;53236;43.666;18.444;2023-08-21T12:47:01;31.10;63.40
65462;DHT22;53236;43.666;18.444;2023-08-21T12:49:26;31.40;63.20
65462;DHT22;53236;43.666;18.444;2023-08-21T12:51:52;31.70;61.30
65462;DHT22;53236;43.666;18.444;2023-08-21T12:54:19;32.10;59.90
65462;DHT22;53236;43.666;18.444;2023-08-21T12:56:44;32.00;62.80
65462;DHT22;53236;43.666;18.444;2023-08-21T12:59:10;31.80;62.30
65462;DHT22;53236;43.666;18.444;2023-08-21T13:01:36;31.70;63.10
65462;DHT22;53236;43.666;18.444;2023-08-21T13:04:03;31.70;64.40
65462;DHT22;53236;43.666;18.444;2023-08-21T13:06:29;31.50;64.20
65462;DHT22;53236;43.666;18.444;2023-08-21T13:08:54;31.30;64.90
65462;DHT22;53236;43.666;18.444;2023-08-21T13:11:20;31.30;66.20
65462;DHT22;53236;43.666;18.444;2023-08-21T13:13:46;31.50;66.10
65462;DHT22;53236;43.666;18.444;2023-08-21T13:16:11;31.50;65.30
65462;DHT22;53236;43.666;18.444;2023-08-21T13:18:37;31.60;62.80
65462;DHT22;53236;43.666;18.444;2023-08-21T13:21:03;31.40;63.80
65462;DHT22;53236;43.666;18.444;2023-08-21T13:23:29;31.10;62.00
65462;DHT22;53236;43.666;18.444;2023-08-21T13:25:57;31.00;62.90
65462;DHT22;53236;43.666;18.444;2023-08-21T13:28:23;31.30;63.40
65462;DHT22;53236;43.666;18.444;2023-08-21T13:30:49;31.50;62.50
65462;DHT22;53236;43.666;18.444;2023-08-21T13:33:15;31.40;61.10
65462;DHT22;53236;43.666;18.444;2023-08-21T13:35:46;31.40;64.20
65462;DHT22;53236;43.666;18.444;2023-08-21T13:38:13;31.40;65.00
65462;DHT22;53236;43.666;18.444;2023-08-21T13:40:39;31.40;65.00
65462;DHT22;53236;43.666;18.444;2023-08-21T13:43:06;31.30;65.90
65462;DHT22;53236;43.666;18.444;2023-08-21T13:45:33;30.90;67.30
65462;DHT22;53236;43.666;18.444;2023-08-21T13:47:59;30.90;66.50
65462;DHT22;53236;43.666;18.444;2023-08-21T13:50:25;31.00;66.90
65462;DHT22;53236;43.666;18.444;2023-08-21T13:52:50;31.00;66.30
65462;DHT22;53236;43.666;18.444;2023-08-21T13:55:16;30.90;66.70
65462;DHT22;53236;43.666;18.444;2023-08-21T13:57:42;30.90;67.20
65462;DHT22;53236;43.666;18.444;2023-08-21T14:00:10;31.00;67.40
65462;DHT22;53236;43.666;18.444;2023-08-21T14:02:40;31.00;66.20
65462;DHT22;53236;43.666;18.444;2023-08-21T14:05:07;30.80;67.40
65462;DHT22;53236;43.666;18.444;2023-08-21T14:07:34;30.60;68.20
65462;DHT22;53236;43.666;18.444;2023-08-21T14:10:00;30.50;68.20
65462;DHT22;53236;43.666;18.444;2023-08-21T14:12:29;30.40;67.70
65462;DHT22;53236;43.666;18.444;2023-08-21T14:14:55;30.50;67.60
65462;DHT22;53236;43.666;18.444;2023-08-21T14:17:21;30.60;67.80
65462;DHT22;53236;43.666;18.444;2023-08-21T14:19:47;30.80;66.60
65462;DHT22;53236;43.666;18.444;2023-08-21T14:22:12;31.00;65.70
65462;DHT22;53236;43.666;18.444;2023-08-21T14:24:38;30.90;66.90
65462;DHT22;53236;43.666;18.444;2023-08-21T14:27:04;30.70;67.30
65462;DHT22;53236;43.666;18.444;2023-08-21T14:29:30;30.60;67.00
65462;DHT22;53236;43.666;18.444;2023-08-21T14:31:57;30.60;68.20
65462;DHT22;53236;43.666;18.444;2023-08-21T14:34:23;30.50;68.40
65462;DHT22;53236;43.666;18.444;2023-08-21T14:36:49;30.30;68.40
65462;DHT22;53236;43.666;18.444;2023-08-21T14:39:15;30.10;70.70
65462;DHT22;53236;43.666;18.444;2023-08-21T14:41:42;30.10;69.70
65462;DHT22;53236;43.666;18.444;2023-08-21T14:44:08;30.00;70.30
65462;DHT22;53236;43.666;18.444;2023-08-21T14:46:34;29.90;71.20
65462;DHT22;53236;43.666;18.444;2023-08-21T14:49:00;29.80;71.20
65462;DHT22;53236;43.666;18.444;2023-08-21T14:51:26;29.90;70.90
65462;DHT22;53236;43.666;18.444;2023-08-21T14:53:51;30.10;70.90
65462;DHT22;53236;43.666;18.444;2023-08-21T14:56:17;30.10;71.20
65462;DHT22;53236;43.666;18.444;2023-08-21T14:58:43;30.30;68.80
65462;DHT22;53236;43.666;18.444;2023-08-21T15:01:10;30.40;69.80
65462;DHT22;53236;43.666;18.444;2023-08-21T15:03:39;30.50;68.80
65462;DHT22;53236;43.666;18.444;2023-08-21T15:06:05;30.10;68.90
65462;DHT22;53236;43.666;18.444;2023-08-21T15:08:31;29.80;70.10
65462;DHT22;53236;43.666;18.444;2023-08-21T15:10:57;29.60;68.70
65462;DHT22;53236;43.666;18.444;2023-08-21T15:13:22;29.40;68.30
65462;DHT22;53236;43.666;18.444;2023-08-21T15:15:48;29.20;70.40
65462;DHT22;53236;43.666;18.444;2023-08-21T15:18:14;29.10;74.00
65462;DHT22;53236;43.666;18.444;2023-08-21T15:20:39;28.80;75.50